Time;durP1;ratioP1;P1;durP2;ratioP2;P2;SDS_P1;SDS_P2;PMS_P1;PMS_P2;Temp;Humidity;BMP_temperature;BMP_pressure;BME280_temperature;BME280_humidity;BME280_pressure;Samples;Min_cycle;Max_cycle;Signal;HPM_P1;HPM_P2
2022/10/03 00:01:47;;;;;;;26.58;4.30;;;;;;;;;;5036769;28;20493;-74
2022/10/03 00:04:19;;;;;;;35.75;3.92;;;;;;;;;;5035473;28;20490;-73
2022/10/03 00:06:55;;;;;;;27.73;3.13;;;;;;;;;;5038045;28;20025;-73
2022/10/03 00:09:34;;;;;;;23.38;3.08;;;;;;;;;;5036401;28;20105;-73
2022/10/03 00:12:03;;;;;;;24.23;3.38;;;;;;;;;;5033014;28;20463;-73
2022/10/03 00:14:32;;;;;;;25.70;3.72;;;;;;;;;;5032821;28;20027;-73
2022/10/03 00:17:02;;;;;;;27.10;3.60;;;;;;;;;;5032709;28;20017;-73
2022/10/03 00:19:34;;;;;;;30.65;3.42;;;;;;;;;;5032875;28;20037;-73
2022/10/03 00:22:03;;;;;;;31.90;4.15;;;;;;;;;;5032643;28;20112;-72
2022/10/03 00:24:39;;;;;;;23.85;3.08;;;;;;;;;;5033219;28;20069;-73
2022/10/03 00:27:24;;;;;;;25.33;3.75;;;;;;;;;;5032538;28;20467;-71
2022/10/03 00:29:55;;;;;;;29.58;3.63;;;;;;;;;;5032749;28;20026;-72
2022/10/03 00:32:42;;;;;;;35.10;4.60;;;;;;;;;;5032425;28;20028;-73
2022/10/03 00:35:20;;;;;;;33.42;4.22;;;;;;;;;;5032468;28;20018;-73
2022/10/03 00:37:56;;;;;;;20.42;2.72;;;;;;;;;;5032547;28;20386;-73
2022/10/03 00:40:31;;;;;;;30.67;3.83;;;;;;;;;;5033813;28;20064;-72
2022/10/03 00:42:58;;;;;;;37.08;3.83;;;;;;;;;;5033732;28;20461;-72
2022/10/03 00:45:24;;;;;;;29.13;4.15;;;;;;;;;;5033955;28;20095;-73
2022/10/03 00:48:02;;;;;;;24.75;3.22;;;;;;;;;;5032420;28;20057;-71
2022/10/03 00:50:34;;;;;;;31.92;3.85;;;;;;;;;;5032147;28;20037;-73
2022/10/03 00:53:12;;;;;;;30.80;4.63;;;;;;;;;;5032294;28;20026;-72
2022/10/03 00:55:56;;;;;;;32.05;3.60;;;;;;;;;;5033932;28;20044;-73
2022/10/03 00:58:38;;;;;;;22.45;3.85;;;;;;;;;;5032161;28;20018;-72
2022/10/03 01:01:39;;;;;;;35.22;3.95;;;;;;;;;;5032012;28;20371;-72
2022/10/03 01:04:15;;;;;;;34.05;3.92;;;;;;;;;;4956728;29;20034;-71
2022/10/03 01:06:41;;;;;;;25.65;3.17;;;;;;;;;;5020883;28;20041;-74
2022/10/03 01:09:21;;;;;;;29.85;3.38;;;;;;;;;;5031130;28;20425;-71
2022/10/03 01:12:02;;;;;;;31.85;3.95;;;;;;;;;;5032021;28;20025;-74
2022/10/03 01:14:31;;;;;;;24.80;3.03;;;;;;;;;;5032124;28;20618;-72
2022/10/03 01:17:27;;;;;;;17.70;2.47;;;;;;;;;;5031757;28;20033;-72
2022/10/03 01:20:07;;;;;;;24.40;3.53;;;;;;;;;;5014716;28;20517;-72
2022/10/03 01:22:51;;;;;;;26.40;4.18;;;;;;;;;;5031615;28;20079;-73
2022/10/03 01:25:26;;;;;;;32.70;4.60;;;;;;;;;;5031819;28;20033;-72
2022/10/03 01:30:42;;;;;;;32.65;3.38;;;;;;;;;;5031816;28;20120;-74
2022/10/03 01:33:11;;;;;;;27.48;3.33;;;;;;;;;;5031487;28;20482;-73
2022/10/03 01:35:49;;;;;;;29.30;3.25;;;;;;;;;;5031385;28;20031;-72
2022/10/03 01:38:33;;;;;;;29.02;3.42;;;;;;;;;;5031573;28;20072;-73
2022/10/03 01:41:14;;;;;;;29.20;3.30;;;;;;;;;;5013898;28;20053;-74
2022/10/03 01:43:48;;;;;;;28.13;4.03;;;;;;;;;;5031535;28;20260;-72
2022/10/03 01:46:16;;;;;;;28.88;3.90;;;;;;;;;;5031307;28;20446;-73
2022/10/03 01:49:05;;;;;;;25.95;3.83;;;;;;;;;;5031584;28;20070;-70
2022/10/03 01:51:37;;;;;;;32.95;3.58;;;;;;;;;;5031851;28;20053;-73
2022/10/03 01:54:07;;;;;;;32.92;3.90;;;;;;;;;;5031555;28;20067;-74
2022/10/03 01:56:43;;;;;;;24.25;3.33;;;;;;;;;;5013467;28;20029;-72
2022/10/03 01:59:09;;;;;;;32.47;4.40;;;;;;;;;;5031490;28;20105;-73
2022/10/03 02:01:47;;;;;;;41.65;3.92;;;;;;;;;;5031346;28;20490;-73
2022/10/03 02:04:31;;;;;;;25.23;3.85;;;;;;;;;;5035426;28;20026;-72
2022/10/03 02:07:06;;;;;;;25.27;3.08;;;;;;;;;;5035066;28;20422;-73
2022/10/03 02:09:47;;;;;;;23.08;2.75;;;;;;;;;;5035242;28;20463;-72
2022/10/03 02:12:13;;;;;;;17.60;2.50;;;;;;;;;;5035015;28;20029;-71
2022/10/03 02:14:49;;;;;;;26.17;3.15;;;;;;;;;;5035140;28;20394;-72
2022/10/03 02:17:29;;;;;;;25.15;2.85;;;;;;;;;;5034652;28;20033;-72
2022/10/03 02:20:01;;;;;;;24.88;2.63;;;;;;;;;;5035048;28;20021;-72
2022/10/03 02:22:32;;;;;;;19.77;2.75;;;;;;;;;;5034536;28;20117;-71
2022/10/03 02:25:18;;;;;;;24.27;2.85;;;;;;;;;;5034921;28;20041;-73
2022/10/03 02:27:57;;;;;;;19.38;3.13;;;;;;;;;;5034804;28;20036;-73
2022/10/03 02:30:41;;;;;;;19.65;2.58;;;;;;;;;;5035336;28;20026;-73
2022/10/03 02:33:32;;;;;;;25.40;3.15;;;;;;;;;;5036234;28;20030;-73
2022/10/03 02:36:17;;;;;;;35.95;3.65;;;;;;;;;;5034481;28;20068;-72
2022/10/03 02:39:08;;;;;;;25.95;3.15;;;;;;;;;;5017094;28;20413;-73
2022/10/03 02:41:40;;;;;;;25.58;2.92;;;;;;;;;;5034864;28;20021;-73
2022/10/03 02:44:06;;;;;;;22.13;3.05;;;;;;;;;;5034749;28;20259;-72
2022/10/03 02:46:43;;;;;;;22.10;2.70;;;;;;;;;;5035215;28;20101;-72
2022/10/03 02:49:38;;;;;;;33.80;5.90;;;;;;;;;;5035159;28;20041;-72
2022/10/03 02:52:19;;;;;;;29.50;3.75;;;;;;;;;;4964475;28;20046;-72
2022/10/03 02:54:48;;;;;;;31.77;3.92;;;;;;;;;;5034488;28;20112;-72
2022/10/03 02:57:17;;;;;;;30.90;3.65;;;;;;;;;;5034857;28;20052;-72
2022/10/03 02:59:58;;;;;;;22.05;3.22;;;;;;;;;;5038116;28;20026;-73
2022/10/03 03:02:42;;;;;;;26.60;3.28;;;;;;;;;;5039068;28;20030;-73
2022/10/03 03:05:19;;;;;;;25.85;3.33;;;;;;;;;;5042788;28;20112;-73
2022/10/03 03:07:45;;;;;;;24.08;3.17;;;;;;;;;;5043377;28;20109;-72
2022/10/03 03:10:23;;;;;;;32.80;4.50;;;;;;;;;;5042093;28;20087;-72
2022/10/03 03:12:49;;;;;;;25.13;3.28;;;;;;;;;;5036001;28;20030;-73
2022/10/03 03:15:27;;;;;;;23.50;2.67;;;;;;;;;;5034086;28;20053;-72
2022/10/03 03:18:03;;;;;;;28.10;3.30;;;;;;;;;;5034795;28;20026;-72
2022/10/03 03:20:42;;;;;;;22.45;3.30;;;;;;;;;;5017614;28;20029;-72
2022/10/03 03:23:14;;;;;;;28.58;3.47;;;;;;;;;;5037059;28;20037;-72
2022/10/03 03:25:58;;;;;;;26.08;3.38;;;;;;;;;;5034038;28;20044;-72
2022/10/03 03:28:39;;;;;;;27.33;3.63;;;;;;;;;;5033890;28;20033;-74
2022/10/03 03:31:09;;;;;;;22.83;3.13;;;;;;;;;;5034272;28;20030;-72
2022/10/03 03:33:57;;;;;;;22.45;2.92;;;;;;;;;;5034049;28;20454;-72
2022/10/03 03:36:42;;;;;;;26.83;3.10;;;;;;;;;;5033629;28;20025;-73
2022/10/03 03:39:20;;;;;;;24.88;3.05;;;;;;;;;;5034124;28;20080;-73
2022/10/03 03:41:52;;;;;;;22.80;3.10;;;;;;;;;;5033682;28;20437;-74
2022/10/03 03:44:18;;;;;;;29.33;3.63;;;;;;;;;;5033660;28;20036;-73
2022/10/03 03:46:44;;;;;;;28.80;3.28;;;;;;;;;;5033290;28;20108;-73
2022/10/03 03:49:29;;;;;;;22.10;2.75;;;;;;;;;;5033587;28;20100;-73
2022/10/03 03:52:00;;;;;;;21.60;2.80;;;;;;;;;;5033571;28;20075;-73
2022/10/03 03:54:36;;;;;;;21.80;2.88;;;;;;;;;;5035548;28;20013;-73
2022/10/03 03:57:27;;;;;;;24.13;3.20;;;;;;;;;;5033316;28;20514;-73
2022/10/03 03:59:53;;;;;;;35.17;3.38;;;;;;;;;;5033261;28;20079;-73
2022/10/03 04:02:27;;;;;;;29.45;3.88;;;;;;;;;;5034305;28;20451;-73
2022/10/03 04:05:00;;;;;;;25.20;3.05;;;;;;;;;;5033447;28;20545;-73
2022/10/03 04:07:28;;;;;;;21.38;3.45;;;;;;;;;;5033056;28;20037;-72
2022/10/03 04:10:03;;;;;;;21.23;2.90;;;;;;;;;;5033327;28;20060;-72
2022/10/03 04:12:32;;;;;;;19.38;2.67;;;;;;;;;;5032940;28;20026;-72
2022/10/03 04:15:04;;;;;;;25.27;3.05;;;;;;;;;;5032775;28;20021;-72
2022/10/03 04:20:26;;;;;;;24.08;2.85;;;;;;;;;;5032773;28;20060;-72
2022/10/03 04:23:07;;;;;;;30.13;3.17;;;;;;;;;;5016046;28;20060;-71
2022/10/03 04:25:53;;;;;;;20.60;3.00;;;;;;;;;;5033375;28;20422;-71
2022/10/03 04:28:33;;;;;;;27.17;2.83;;;;;;;;;;5033020;28;20017;-72
2022/10/03 04:31:18;;;;;;;30.13;3.10;;;;;;;;;;5032589;28;20029;-71
2022/10/03 04:34:06;;;;;;;25.92;2.83;;;;;;;;;;5014671;28;20093;-71
2022/10/03 04:36:42;;;;;;;20.08;3.28;;;;;;;;;;5032187;28;20091;-71
2022/10/03 04:39:26;;;;;;;17.80;2.72;;;;;;;;;;5032368;28;20026;-71
2022/10/03 04:42:01;;;;;;;34.63;3.22;;;;;;;;;;5032268;28;20022;-72
2022/10/03 04:44:37;;;;;;;25.70;3.10;;;;;;;;;;5015632;28;20025;-73
2022/10/03 04:47:06;;;;;;;18.88;2.40;;;;;;;;;;5036743;28;20483;-71
2022/10/03 04:49:32;;;;;;;29.05;3.67;;;;;;;;;;5032267;28;20026;-72
2022/10/03 04:52:11;;;;;;;22.10;3.10;;;;;;;;;;5014456;28;20024;-71
2022/10/03 04:54:54;;;;;;;27.13;2.95;;;;;;;;;;5033879;28;20529;-71
2022/10/03 04:57:24;;;;;;;28.48;3.50;;;;;;;;;;5032903;28;20018;-72
2022/10/03 05:00:09;;;;;;;24.23;3.30;;;;;;;;;;5031996;28;20021;-72
2022/10/03 05:02:42;;;;;;;26.15;3.42;;;;;;;;;;5031911;28;20386;-71
2022/10/03 05:05:09;;;;;;;25.58;3.22;;;;;;;;;;5031881;28;20075;-72
2022/10/03 05:07:45;;;;;;;22.80;2.80;;;;;;;;;;5031928;28;20021;-70
2022/10/03 05:10:22;;;;;;;35.00;3.28;;;;;;;;;;5014163;28;20022;-71
2022/10/03 05:13:20;;;;;;;28.98;3.40;;;;;;;;;;5035217;28;20623;-73
2022/10/03 05:16:05;;;;;;;26.40;3.53;;;;;;;;;;4990936;28;20037;-74
2022/10/03 05:18:39;;;;;;;26.33;3.37;;;;;;;;;;5034389;28;20079;-73
2022/10/03 05:21:11;;;;;;;31.73;3.65;;;;;;;;;;5032101;28;20108;-71
2022/10/03 05:24:04;;;;;;;31.38;4.25;;;;;;;;;;5031159;28;20068;-71
2022/10/03 05:26:39;;;;;;;34.38;3.70;;;;;;;;;;5027655;28;20445;-71
2022/10/03 05:29:17;;;;;;;29.73;4.05;;;;;;;;;;5033188;28;20025;-72
2022/10/03 05:31:49;;;;;;;31.23;3.35;;;;;;;;;;5031215;28;20029;-70
2022/10/03 05:34:21;;;;;;;27.05;3.80;;;;;;;;;;5031120;28;20401;-73
2022/10/03 05:36:59;;;;;;;30.02;3.85;;;;;;;;;;5037317;28;20022;-72
2022/10/03 05:39:25;;;;;;;35.70;3.90;;;;;;;;;;5044614;28;20025;-72
2022/10/03 05:41:58;;;;;;;33.53;3.33;;;;;;;;;;5020344;28;20025;-72
2022/10/03 05:44:42;;;;;;;27.75;3.45;;;;;;;;;;5034870;28;20033;-71
2022/10/03 05:47:43;;;;;;;26.30;3.45;;;;;;;;;;5038683;28;20025;-71
2022/10/03 05:50:35;;;;;;;30.88;3.83;;;;;;;;;;5034230;28;20076;-73
2022/10/03 05:53:19;;;;;;;40.38;4.78;;;;;;;;;;5034153;28;20025;-71
2022/10/03 05:55:53;;;;;;;33.20;4.53;;;;;;;;;;5033838;28;20029;-71
2022/10/03 05:58:22;;;;;;;22.70;3.42;;;;;;;;;;5034124;28;20018;-70
2022/10/03 06:00:49;;;;;;;28.83;3.55;;;;;;;;;;5033884;28;20025;-71
2022/10/03 06:03:33;;;;;;;37.22;4.03;;;;;;;;;;5033768;28;20021;-71
2022/10/03 06:06:19;;;;;;;31.85;3.80;;;;;;;;;;5033968;28;20072;-70
2022/10/03 06:08:51;;;;;;;28.70;4.00;;;;;;;;;;5034012;28;20076;-70
2022/10/03 06:11:20;;;;;;;30.73;3.97;;;;;;;;;;5034152;28;20037;-71
2022/10/03 06:13:57;;;;;;;32.33;3.67;;;;;;;;;;5034000;28;20046;-70
2022/10/03 06:16:23;;;;;;;33.78;4.22;;;;;;;;;;5033650;28;20030;-71
2022/10/03 06:19:02;;;;;;;35.80;4.35;;;;;;;;;;5034840;28;20079;-70
2022/10/03 06:21:32;;;;;;;34.15;4.38;;;;;;;;;;5016436;28;20442;-71
2022/10/03 06:23:58;;;;;;;26.80;3.63;;;;;;;;;;4989223;23;1192086;-77
2022/10/03 06:26:42;;;;;;;35.00;4.03;;;;;;;;;;5035204;28;20112;-76
2022/10/03 06:29:26;;;;;;;28.45;3.80;;;;;;;;;;5035294;28;20080;-75
2022/10/03 06:32:05;;;;;;;30.63;4.50;;;;;;;;;;5036196;28;20080;-76
2022/10/03 06:34:31;;;;;;;27.05;3.50;;;;;;;;;;5035354;28;20060;-73
2022/10/03 06:37:14;;;;;;;27.25;3.40;;;;;;;;;;5035481;28;20061;-75
2022/10/03 06:39:41;;;;;;;42.30;4.72;;;;;;;;;;5031914;28;20028;-77
2022/10/03 06:42:20;;;;;;;34.15;5.15;;;;;;;;;;5035396;28;20521;-74
2022/10/03 06:44:57;;;;;;;52.30;5.05;;;;;;;;;;5035401;28;20390;-79
2022/10/03 06:47:26;;;;;;;32.40;4.78;;;;;;;;;;5035396;28;20101;-76
2022/10/03 06:49:57;;;;;;;32.08;4.70;;;;;;;;;;5039119;28;20032;-76
2022/10/03 06:52:35;;;;;;;34.25;3.85;;;;;;;;;;5035124;28;20037;-76
2022/10/03 06:55:16;;;;;;;38.53;4.10;;;;;;;;;;5041441;28;20029;-76
2022/10/03 06:58:01;;;;;;;34.40;3.92;;;;;;;;;;5045112;28;20393;-75
2022/10/03 07:00:39;;;;;;;29.63;3.80;;;;;;;;;;5035731;28;20409;-76
2022/10/03 07:03:05;;;;;;;38.92;4.47;;;;;;;;;;5042032;28;20018;-76
2022/10/03 07:05:50;;;;;;;28.65;3.42;;;;;;;;;;5051714;28;20036;-76
2022/10/03 07:08:35;;;;;;;27.77;3.60;;;;;;;;;;5052600;28;20039;-75
2022/10/03 07:11:01;;;;;;;;;;;;;;;;;;5054063;28;20022;-76
2022/10/03 07:13:42;;;;;;;35.83;3.80;;;;;;;;;;5054385;28;19905;-76
2022/10/03 07:16:22;;;;;;;28.50;4.43;;;;;;;;;;5048000;28;20040;-77
2022/10/03 07:18:52;;;;;;;33.95;4.18;;;;;;;;;;5025211;28;20426;-74
2022/10/03 07:21:27;;;;;;;30.90;3.78;;;;;;;;;;5042288;28;20516;-77
2022/10/03 07:24:01;;;;;;;25.10;3.42;;;;;;;;;;5044549;28;20055;-76
2022/10/03 07:26:27;;;;;;;;;;;;;;;;;;5018591;28;20026;-77
2022/10/03 07:29:07;;;;;;;34.28;4.15;;;;;;;;;;5016423;28;19923;-74
2022/10/03 07:31:33;;;;;;;37.00;3.67;;;;;;;;;;5034138;28;20047;-76
2022/10/03 07:33:59;;;;;;;35.67;4.05;;;;;;;;;;5016760;28;20486;-75
2022/10/03 07:39:24;;;;;;;25.20;3.58;;;;;;;;;;5034473;28;20059;-75
2022/10/03 07:41:59;;;;;;;28.30;3.45;;;;;;;;;;5034193;28;20033;-76
2022/10/03 07:44:28;;;;;;;;;;;;;;;;;;5034539;28;20020;-74
2022/10/03 07:46:54;;;;;;;26.25;3.78;;;;;;;;;;5016223;28;20004;-77
2022/10/03 07:49:27;;;;;;;27.55;4.88;;;;;;;;;;5034070;28;20447;-75
2022/10/03 07:52:03;;;;;;;21.50;3.05;;;;;;;;;;5036236;28;20100;-75
2022/10/03 07:54:29;;;;;;;24.45;3.35;;;;;;;;;;5034009;28;20023;-75
2022/10/03 07:57:14;;;;;;;25.40;3.28;;;;;;;;;;5035916;28;20405;-78
2022/10/03 07:59:58;;;;;;;27.25;3.95;;;;;;;;;;5030676;28;20025;-76
2022/10/03 08:02:39;;;;;;;27.83;4.10;;;;;;;;;;5033523;28;20489;-75
2022/10/03 08:05:24;;;;;;;28.95;3.50;;;;;;;;;;5033698;28;20458;-75
2022/10/03 08:07:56;;;;;;;21.67;3.05;;;;;;;;;;5035604;28;20034;-76
2022/10/03 08:10:34;;;;;;;27.10;3.50;;;;;;;;;;5034798;28;20026;-77
2022/10/03 08:13:19;;;;;;;19.77;4.18;;;;;;;;;;5034423;28;20101;-77
2022/10/03 08:16:05;;;;;;;23.23;3.63;;;;;;;;;;5034462;28;20033;-79
2022/10/03 08:18:50;;;;;;;22.17;3.08;;;;;;;;;;5015744;28;20033;-76
2022/10/03 08:21:29;;;;;;;25.40;4.05;;;;;;;;;;5033779;28;20098;-77
2022/10/03 08:24:17;;;;;;;20.58;3.35;;;;;;;;;;5033405;28;20506;-77
2022/10/03 08:27:09;;;;;;;20.67;3.70;;;;;;;;;;5033305;28;20385;-77
2022/10/03 08:29:50;;;;;;;20.90;3.40;;;;;;;;;;5003158;28;20051;-77
2022/10/03 08:32:35;;;;;;;24.85;3.60;;;;;;;;;;5034508;28;20052;-79
2022/10/03 08:35:19;;;;;;;18.70;3.28;;;;;;;;;;5041383;28;20030;-74
2022/10/03 08:38:01;;;;;;;24.67;3.55;;;;;;;;;;5041526;28;20525;-77
2022/10/03 08:40:45;;;;;;;27.20;3.83;;;;;;;;;;5033200;28;20023;-77
2022/10/03 08:43:31;;;;;;;22.08;3.55;;;;;;;;;;5033175;28;20025;-77
2022/10/03 08:46:06;;;;;;;19.55;3.20;;;;;;;;;;5033191;28;20026;-77
2022/10/03 08:48:41;;;;;;;22.75;3.40;;;;;;;;;;5032977;28;20037;-75
2022/10/03 08:51:09;;;;;;;22.08;4.35;;;;;;;;;;5032905;28;20025;-77
2022/10/03 08:53:38;;;;;;;18.77;3.55;;;;;;;;;;5015828;28;20201;-75
2022/10/03 08:56:15;;;;;;;27.23;3.90;;;;;;;;;;5016406;28;20029;-76
2022/10/03 08:58:54;;;;;;;20.67;3.10;;;;;;;;;;5033244;28;20382;-77
2022/10/03 09:01:29;;;;;;;24.90;4.30;;;;;;;;;;5016084;28;20024;-77
2022/10/03 09:04:28;;;;;;;21.83;3.78;;;;;;;;;;5033371;28;20474;-77
2022/10/03 09:07:00;;;;;;;24.67;4.13;;;;;;;;;;5036411;28;20033;-75
2022/10/03 09:09:45;;;;;;;29.92;4.35;;;;;;;;;;5036801;28;20021;-75
2022/10/03 09:12:14;;;;;;;23.90;3.55;;;;;;;;;;5038482;28;20026;-76
2022/10/03 09:14:46;;;;;;;21.05;5.03;;;;;;;;;;5042944;28;20029;-77
2022/10/03 09:17:35;;;;;;;16.30;3.10;;;;;;;;;;5039063;28;20026;-75
2022/10/03 09:20:01;;;;;;;17.30;3.83;;;;;;;;;;5017564;28;20032;-75
2022/10/03 09:22:30;;;;;;;18.25;3.70;;;;;;;;;;5033257;28;20096;-75
2022/10/03 09:25:06;;;;;;;24.88;3.72;;;;;;;;;;5036824;28;20480;-77
2022/10/03 09:27:55;;;;;;;19.50;3.85;;;;;;;;;;5033132;28;20068;-75
2022/10/03 09:30:23;;;;;;;16.13;3.35;;;;;;;;;;4996613;28;20142;-77
2022/10/03 09:33:01;;;;;;;21.33;3.83;;;;;;;;;;5033071;28;20096;-77
2022/10/03 09:35:36;;;;;;;27.85;3.80;;;;;;;;;;5015534;28;20026;-75
2022/10/03 09:38:14;;;;;;;25.52;4.13;;;;;;;;;;5038949;28;20025;-76
2022/10/03 09:40:59;;;;;;;22.92;3.10;;;;;;;;;;5044466;28;20033;-76
2022/10/03 09:43:25;;;;;;;;;;;;;;;;;;5037400;28;20021;-75
2022/10/03 09:46:00;;;;;;;24.98;3.90;;;;;;;;;;5033400;28;20310;-75
2022/10/03 09:48:39;;;;;;;27.30;3.45;;;;;;;;;;5032024;28;20100;-75
2022/10/03 09:51:21;;;;;;;29.92;4.13;;;;;;;;;;5032019;28;20033;-77
2022/10/03 09:53:49;;;;;;;29.38;3.50;;;;;;;;;;5014479;28;20025;-76
2022/10/03 09:56:43;;;;;;;19.13;3.47;;;;;;;;;;5032177;28;20105;-77
2022/10/03 09:59:19;;;;;;;23.48;3.45;;;;;;;;;;5031953;28;20041;-76
2022/10/03 10:02:03;;;;;;;17.63;3.00;;;;;;;;;;5033799;28;20036;-76
2022/10/03 10:04:32;;;;;;;20.92;3.88;;;;;;;;;;5034761;28;20025;-76
2022/10/03 10:07:17;;;;;;;16.83;3.33;;;;;;;;;;5033899;28;20032;-77
2022/10/03 10:10:07;;;;;;;21.70;3.17;;;;;;;;;;5036837;28;20109;-77
2022/10/03 10:12:33;;;;;;;17.98;3.80;;;;;;;;;;5033226;28;20471;-76
2022/10/03 10:15:05;;;;;;;19.83;3.28;;;;;;;;;;5033423;28;20048;-75
2022/10/03 10:17:43;;;;;;;14.95;3.17;;;;;;;;;;5032174;28;20378;-77
2022/10/03 10:20:19;;;;;;;16.10;2.90;;;;;;;;;;5033185;28;20429;-74
2022/10/03 10:23:03;;;;;;;14.95;2.33;;;;;;;;;;5032053;28;20029;-75
2022/10/03 10:25:38;;;;;;;10.80;2.42;;;;;;;;;;5035792;28;20025;-75
2022/10/03 10:28:07;;;;;;;16.58;2.63;;;;;;;;;;5035629;28;20432;-76
2022/10/03 10:30:53;;;;;;;15.93;3.20;;;;;;;;;;5036376;28;20028;-75
2022/10/03 10:33:19;;;;;;;16.38;2.75;;;;;;;;;;5035633;28;20053;-74
2022/10/03 10:35:53;;;;;;;15.98;2.95;;;;;;;;;;5037522;28;20061;-75
2022/10/03 10:38:26;;;;;;;16.75;3.47;;;;;;;;;;5036964;28;20036;-76
2022/10/03 10:41:05;;;;;;;14.90;2.45;;;;;;;;;;5039944;28;20029;-76
2022/10/03 10:43:34;;;;;;;13.93;2.80;;;;;;;;;;5037864;28;20386;-76
2022/10/03 10:46:19;;;;;;;17.55;3.00;;;;;;;;;;5044596;28;20028;-76
2022/10/03 10:48:44;;;;;;;;;;;;;;;;;;5044893;28;20048;-75
2022/10/03 10:51:29;;;;;;;13.90;2.22;;;;;;;;;;5028283;28;19893;-75
2022/10/03 10:54:34;;;;;;;12.43;2.15;;;;;;;;;;5049401;28;20104;-74
2022/10/03 10:57:08;;;;;;;13.00;3.03;;;;;;;;;;4967680;29;20111;-75
2022/10/03 10:59:34;;;;;;;14.57;3.35;;;;;;;;;;4968033;29;20031;-76
2022/10/03 11:02:19;;;;;;;16.60;2.10;;;;;;;;;;5007201;28;20048;-76
2022/10/03 11:04:48;;;;;;;17.67;2.83;;;;;;;;;;5048919;28;20089;-75
2022/10/03 11:07:34;;;;;;;16.33;2.53;;;;;;;;;;5023726;28;20124;-76
2022/10/03 11:10:00;;;;;;;20.02;2.85;;;;;;;;;;5017867;28;20025;-77
2022/10/03 11:12:26;;;;;;;16.10;2.67;;;;;;;;;;5034848;28;20036;-74
2022/10/03 11:15:11;;;;;;;18.02;2.75;;;;;;;;;;5017467;28;20403;-74
2022/10/03 11:17:49;;;;;;;16.63;3.45;;;;;;;;;;5034651;28;20470;-76
2022/10/03 11:20:14;;;;;;;13.63;2.22;;;;;;;;;;5034716;28;20061;-77
2022/10/03 11:22:52;;;;;;;17.33;2.85;;;;;;;;;;5034563;28;20032;-75
2022/10/03 11:25:39;;;;;;;20.13;3.10;;;;;;;;;;5034500;28;20029;-74
2022/10/03 11:28:26;;;;;;;21.40;3.63;;;;;;;;;;5034159;28;20025;-75
2022/10/03 11:31:11;;;;;;;19.88;3.22;;;;;;;;;;5034264;28;20363;-75
2022/10/03 11:33:52;;;;;;;18.55;3.22;;;;;;;;;;5034325;28;20132;-77
2022/10/03 11:36:24;;;;;;;19.13;3.28;;;;;;;;;;5033233;28;20030;-74
2022/10/03 11:38:53;;;;;;;16.83;3.00;;;;;;;;;;5035755;28;20025;-75
2022/10/03 11:41:27;;;;;;;12.88;2.55;;;;;;;;;;5037359;28;20379;-75
2022/10/03 11:43:58;;;;;;;16.08;2.53;;;;;;;;;;5034876;28;20045;-75
2022/10/03 11:46:28;;;;;;;15.52;2.97;;;;;;;;;;5039435;28;20045;-74
2022/10/03 11:49:11;;;;;;;17.17;3.00;;;;;;;;;;5039179;28;20040;-75
2022/10/03 11:51:49;;;;;;;19.80;3.15;;;;;;;;;;5022594;28;20059;-75
2022/10/03 11:54:18;;;;;;;15.02;2.97;;;;;;;;;;5020874;28;20091;-75
2022/10/03 11:56:50;;;;;;;15.90;3.35;;;;;;;;;;5036115;28;20116;-75
2022/10/03 11:59:34;;;;;;;16.02;3.28;;;;;;;;;;5016503;28;20025;-76
2022/10/03 12:02:15;;;;;;;16.70;3.70;;;;;;;;;;5034237;28;20085;-75
2022/10/03 12:04:43;;;;;;;19.90;3.90;;;;;;;;;;5034257;28;20417;-74
2022/10/03 12:10:32;;;;;;;20.85;3.58;;;;;;;;;;5034471;28;20440;-74
2022/10/03 12:12:58;;;;;;;14.43;3.22;;;;;;;;;;5033248;28;20056;-76
2022/10/03 12:15:24;;;;;;;22.27;3.47;;;;;;;;;;5032823;28;20443;-75
2022/10/03 12:17:57;;;;;;;18.50;3.22;;;;;;;;;;5032954;28;20022;-76
2022/10/03 12:20:29;;;;;;;17.95;2.80;;;;;;;;;;5033195;28;20021;-75
2022/10/03 12:22:55;;;;;;;21.70;2.78;;;;;;;;;;5015796;28;20061;-76
2022/10/03 12:25:26;;;;;;;17.20;2.88;;;;;;;;;;5033133;28;20053;-78
2022/10/03 12:28:11;;;;;;;17.70;3.08;;;;;;;;;;5033768;28;20026;-75
2022/10/03 12:30:43;;;;;;;18.58;3.08;;;;;;;;;;5035387;28;20359;-77
2022/10/03 12:33:26;;;;;;;19.40;3.20;;;;;;;;;;5036740;28;20033;-77
2022/10/03 12:36:25;;;;;;;16.13;2.70;;;;;;;;;;5015701;28;20021;-75
2022/10/03 12:39:09;;;;;;;19.25;3.15;;;;;;;;;;5001569;28;20037;-76
2022/10/03 12:41:51;;;;;;;17.88;3.00;;;;;;;;;;5015643;28;20037;-75
2022/10/03 12:44:36;;;;;;;16.60;2.45;;;;;;;;;;5034343;28;20021;-75
2022/10/03 12:47:16;;;;;;;19.65;3.72;;;;;;;;;;5033109;28;20021;-77
2022/10/03 12:49:49;;;;;;;20.48;3.03;;;;;;;;;;5033597;28;20124;-76
2022/10/03 12:52:18;;;;;;;17.63;3.22;;;;;;;;;;5035245;28;20494;-74
2022/10/03 12:54:56;;;;;;;19.23;2.85;;;;;;;;;;5037150;28;20033;-75
2022/10/03 12:57:43;;;;;;;23.52;3.20;;;;;;;;;;5041305;28;20081;-78
2022/10/03 13:00:09;;;;;;;20.35;3.38;;;;;;;;;;5039522;28;20044;-76
2022/10/03 13:02:41;;;;;;;23.20;3.47;;;;;;;;;;5036025;28;20021;-76
2022/10/03 13:05:10;;;;;;;17.80;2.90;;;;;;;;;;5034407;28;20120;-75
2022/10/03 13:07:52;;;;;;;21.35;3.60;;;;;;;;;;5032907;28;20033;-74
2022/10/03 13:10:26;;;;;;;19.65;3.33;;;;;;;;;;5032893;28;20025;-76
2022/10/03 13:12:54;;;;;;;16.98;2.97;;;;;;;;;;5032389;28;20024;-76
2022/10/03 13:15:39;;;;;;;20.63;3.05;;;;;;;;;;5031996;28;20482;-76
2022/10/03 13:18:15;;;;;;;16.90;2.83;;;;;;;;;;5015266;28;20394;-76
2022/10/03 13:20:44;;;;;;;25.15;3.03;;;;;;;;;;5032954;28;20025;-76
2022/10/03 13:23:29;;;;;;;23.10;3.63;;;;;;;;;;5033045;28;20493;-79
2022/10/03 13:26:14;;;;;;;23.00;3.10;;;;;;;;;;5032809;28;20032;-76
2022/10/03 13:28:46;;;;;;;21.63;2.92;;;;;;;;;;5032961;28;20082;-75
2022/10/03 13:31:27;;;;;;;18.42;3.55;;;;;;;;;;5032979;28;20026;-76
2022/10/03 13:33:59;;;;;;;18.77;3.35;;;;;;;;;;5034291;28;20498;-76
2022/10/03 13:36:38;;;;;;;21.15;4.07;;;;;;;;;;5034120;28;20072;-75
2022/10/03 13:39:24;;;;;;;34.67;3.42;;;;;;;;;;5033194;28;20033;-77
2022/10/03 13:42:09;;;;;;;25.42;3.40;;;;;;;;;;5032684;28;20109;-74
2022/10/03 13:44:54;;;;;;;21.27;3.28;;;;;;;;;;5036275;28;20025;-75
2022/10/03 13:47:37;;;;;;;22.85;2.95;;;;;;;;;;5036778;28;20053;-75
2022/10/03 13:50:14;;;;;;;19.40;3.92;;;;;;;;;;5037699;28;20030;-77
2022/10/03 13:52:43;;;;;;;17.48;3.08;;;;;;;;;;5020629;28;20025;-75
2022/10/03 13:55:09;;;;;;;17.10;3.00;;;;;;;;;;5037682;28;20109;-75
2022/10/03 13:57:54;;;;;;;21.02;3.72;;;;;;;;;;5037011;28;20442;-75
2022/10/03 14:00:21;;;;;;;20.98;3.45;;;;;;;;;;5021449;28;20106;-76
2022/10/03 14:02:53;;;;;;;21.42;2.80;;;;;;;;;;5044108;28;20052;-76
2022/10/03 14:05:35;;;;;;;28.95;3.47;;;;;;;;;;5047902;28;20029;-75
2022/10/03 14:08:09;;;;;;;15.63;2.80;;;;;;;;;;5048461;28;20025;-76
2022/10/03 14:10:49;;;;;;;23.60;3.75;;;;;;;;;;5030654;28;20509;-76
2022/10/03 14:13:33;;;;;;;27.20;3.53;;;;;;;;;;5049078;28;20032;-75
2022/10/03 14:16:02;;;;;;;21.67;4.03;;;;;;;;;;5048925;28;20040;-76
2022/10/03 14:18:34;;;;;;;23.60;3.63;;;;;;;;;;5051887;28;20021;-76
2022/10/03 14:21:19;;;;;;;23.48;3.80;;;;;;;;;;5024362;28;20119;-75
2022/10/03 14:23:45;;;;;;;;;;;;;;;;;;5040332;28;20522;-73
2022/10/03 14:26:17;;;;;;;21.27;3.42;;;;;;;;;;5036936;28;19959;-73
2022/10/03 14:29:01;;;;;;;24.17;3.42;;;;;;;;;;5022377;28;20389;-73
2022/10/03 14:31:47;;;;;;;16.02;2.85;;;;;;;;;;5042629;28;20025;-73
2022/10/03 14:34:25;;;;;;;24.80;3.47;;;;;;;;;;5060034;28;20010;-75
2022/10/03 14:37:14;;;;;;;23.27;3.75;;;;;;;;;;5026109;28;20052;-75
2022/10/03 14:39:43;;;;;;;25.80;3.38;;;;;;;;;;5047840;28;20029;-75
2022/10/03 14:42:28;;;;;;;24.90;3.63;;;;;;;;;;5033969;28;20112;-74
2022/10/03 14:44:56;;;;;;;21.27;3.47;;;;;;;;;;5052627;28;20281;-74
2022/10/03 14:47:22;;;;;;;23.25;3.42;;;;;;;;;;5041722;28;20056;-74
2022/10/03 14:49:51;;;;;;;29.40;4.45;;;;;;;;;;5024994;28;20028;-76
2022/10/03 14:52:25;;;;;;;22.08;4.10;;;;;;;;;;5041427;28;20029;-75
2022/10/03 14:54:53;;;;;;;24.05;4.35;;;;;;;;;;5040025;28;20029;-76
2022/10/03 14:57:25;;;;;;;27.05;4.43;;;;;;;;;;5018872;28;20171;-77
2022/10/03 14:59:57;;;;;;;22.52;4.10;;;;;;;;;;5035513;28;20032;-76
2022/10/03 15:02:31;;;;;;;27.30;4.07;;;;;;;;;;5019244;28;20556;-76
2022/10/03 15:05:03;;;;;;;25.58;4.05;;;;;;;;;;5035949;28;20029;-77
2022/10/03 15:07:34;;;;;;;22.80;4.05;;;;;;;;;;5035277;28;20479;-77
2022/10/03 15:10:00;;;;;;;27.30;3.97;;;;;;;;;;5036525;28;20053;-76
2022/10/03 15:12:30;;;;;;;21.10;3.95;;;;;;;;;;5036351;28;20028;-75
2022/10/03 15:15:00;;;;;;;18.55;3.08;;;;;;;;;;5036144;28;20089;-73
2022/10/03 15:17:28;;;;;;;21.42;3.33;;;;;;;;;;5035284;28;20063;-74
2022/10/03 15:19:55;;;;;;;23.52;4.45;;;;;;;;;;5040186;28;20034;-74
2022/10/03 15:22:51;;;;;;;21.58;3.28;;;;;;;;;;5034811;28;20109;-75
2022/10/03 15:25:17;;;;;;;;;;;;;;;;;;5022262;28;20045;-74
2022/10/03 15:27:44;;;;;;;19.05;3.00;;;;;;;;;;5034506;28;19905;-73
2022/10/03 15:30:21;;;;;;;22.30;4.65;;;;;;;;;;5034649;28;20433;-74
2022/10/03 15:32:48;;;;;;;20.48;3.47;;;;;;;;;;5034397;28;20471;-77
2022/10/03 15:35:18;;;;;;;18.55;3.83;;;;;;;;;;5016629;28;20064;-75
2022/10/03 15:37:44;;;;;;;15.13;2.75;;;;;;;;;;5034197;28;20030;-76